sensor_id;sensor_type;location;lat;lon;timestamp;P1;durP1;ratioP1;P2;durP2;ratioP2
65936;SDS011;52707;52.086;5.418;2024-02-15T00:00:54;27.40;;;11.90;;
65936;SDS011;52707;52.086;5.418;2024-02-15T00:03:21;19.98;;;10.50;;
65936;SDS011;52707;52.086;5.418;2024-02-15T00:05:47;20.70;;;9.85;;
65936;SDS011;52707;52.086;5.418;2024-02-15T00:08:14;23.75;;;10.20;;
65936;SDS011;52707;52.086;5.418;2024-02-15T00:10:41;21.35;;;10.07;;
65936;SDS011;52707;52.086;5.418;2024-02-15T00:13:07;19.45;;;9.70;;
65936;SDS011;52707;52.086;5.418;2024-02-15T00:15:34;22.75;;;9.65;;
65936;SDS011;52707;52.086;5.418;2024-02-15T00:18:01;17.40;;;9.50;;
65936;SDS011;52707;52.086;5.418;2024-02-15T00:20:29;16.52;;;8.18;;
65936;SDS011;52707;52.086;5.418;2024-02-15T00:22:55;18.05;;;8.90;;
65936;SDS011;52707;52.086;5.418;2024-02-15T00:25:22;23.63;;;8.45;;
65936;SDS011;52707;52.086;5.418;2024-02-15T00:27:48;16.20;;;8.70;;
65936;SDS011;52707;52.086;5.418;2024-02-15T00:30:14;23.88;;;9.68;;
65936;SDS011;52707;52.086;5.418;2024-02-15T00:32:43;23.33;;;9.00;;
65936;SDS011;52707;52.086;5.418;2024-02-15T00:35:11;25.63;;;9.30;;
65936;SDS011;52707;52.086;5.418;2024-02-15T00:37:42;30.13;;;11.55;;
65936;SDS011;52707;52.086;5.418;2024-02-15T00:40:08;27.98;;;9.32;;
65936;SDS011;52707;52.086;5.418;2024-02-15T00:42:35;23.23;;;8.68;;
65936;SDS011;52707;52.086;5.418;2024-02-15T00:45:02;20.67;;;9.38;;
65936;SDS011;52707;52.086;5.418;2024-02-15T00:47:29;18.27;;;8.48;;
65936;SDS011;52707;52.086;5.418;2024-02-15T00:49:55;25.45;;;9.23;;
65936;SDS011;52707;52.086;5.418;2024-02-15T00:52:22;16.98;;;8.23;;
65936;SDS011;52707;52.086;5.418;2024-02-15T00:54:48;27.98;;;8.85;;
65936;SDS011;52707;52.086;5.418;2024-02-15T00:57:15;19.00;;;8.90;;
65936;SDS011;52707;52.086;5.418;2024-02-15T00:59:41;23.88;;;8.40;;
65936;SDS011;52707;52.086;5.418;2024-02-15T01:02:07;20.15;;;8.25;;
65936;SDS011;52707;52.086;5.418;2024-02-15T01:04:34;25.65;;;9.75;;
65936;SDS011;52707;52.086;5.418;2024-02-15T01:07:00;25.30;;;10.02;;
65936;SDS011;52707;52.086;5.418;2024-02-15T01:09:27;18.55;;;9.25;;
65936;SDS011;52707;52.086;5.418;2024-02-15T01:11:53;23.92;;;10.48;;
65936;SDS011;52707;52.086;5.418;2024-02-15T01:14:21;36.30;;;10.50;;
65936;SDS011;52707;52.086;5.418;2024-02-15T01:16:48;29.20;;;10.98;;
65936;SDS011;52707;52.086;5.418;2024-02-15T01:19:14;21.83;;;10.38;;
65936;SDS011;52707;52.086;5.418;2024-02-15T01:21:41;19.75;;;11.52;;
65936;SDS011;52707;52.086;5.418;2024-02-15T01:24:10;24.08;;;13.00;;
65936;SDS011;52707;52.086;5.418;2024-02-15T01:26:36;27.20;;;14.73;;
65936;SDS011;52707;52.086;5.418;2024-02-15T01:29:03;31.92;;;16.15;;
65936;SDS011;52707;52.086;5.418;2024-02-15T01:31:29;31.80;;;16.77;;
65936;SDS011;52707;52.086;5.418;2024-02-15T01:33:56;36.00;;;18.05;;
65936;SDS011;52707;52.086;5.418;2024-02-15T01:36:23;37.42;;;18.30;;
65936;SDS011;52707;52.086;5.418;2024-02-15T01:38:49;45.30;;;19.08;;
65936;SDS011;52707;52.086;5.418;2024-02-15T01:41:16;40.75;;;19.70;;
65936;SDS011;52707;52.086;5.418;2024-02-15T01:43:45;35.03;;;19.30;;
65936;SDS011;52707;52.086;5.418;2024-02-15T01:46:12;35.70;;;19.93;;
65936;SDS011;52707;52.086;5.418;2024-02-15T01:48:39;40.35;;;20.52;;
65936;SDS011;52707;52.086;5.418;2024-02-15T01:51:07;42.70;;;18.67;;
65936;SDS011;52707;52.086;5.418;2024-02-15T01:53:34;33.40;;;18.10;;
65936;SDS011;52707;52.086;5.418;2024-02-15T01:56:01;38.47;;;19.00;;
65936;SDS011;52707;52.086;5.418;2024-02-15T01:58:27;35.20;;;19.10;;
65936;SDS011;52707;52.086;5.418;2024-02-15T02:00:57;36.70;;;20.03;;
65936;SDS011;52707;52.086;5.418;2024-02-15T02:03:24;36.05;;;18.77;;
65936;SDS011;52707;52.086;5.418;2024-02-15T02:05:50;38.28;;;19.73;;
65936;SDS011;52707;52.086;5.418;2024-02-15T02:08:17;34.25;;;17.73;;
65936;SDS011;52707;52.086;5.418;2024-02-15T02:10:43;30.33;;;18.40;;
65936;SDS011;52707;52.086;5.418;2024-02-15T02:13:11;32.42;;;17.73;;
65936;SDS011;52707;52.086;5.418;2024-02-15T02:15:38;32.72;;;16.85;;
65936;SDS011;52707;52.086;5.418;2024-02-15T02:18:05;42.65;;;17.70;;
65936;SDS011;52707;52.086;5.418;2024-02-15T02:20:36;39.20;;;18.08;;
65936;SDS011;52707;52.086;5.418;2024-02-15T02:23:16;31.25;;;16.02;;
65936;SDS011;52707;52.086;5.418;2024-02-15T02:25:44;36.65;;;16.55;;
65936;SDS011;52707;52.086;5.418;2024-02-15T02:28:12;27.73;;;16.42;;
65936;SDS011;52707;52.086;5.418;2024-02-15T02:30:39;33.88;;;15.75;;
65936;SDS011;52707;52.086;5.418;2024-02-15T02:33:11;32.72;;;14.90;;
65936;SDS011;52707;52.086;5.418;2024-02-15T02:35:44;33.33;;;14.25;;
65936;SDS011;52707;52.086;5.418;2024-02-15T02:38:11;32.28;;;14.27;;
65936;SDS011;52707;52.086;5.418;2024-02-15T02:40:38;32.83;;;14.20;;
65936;SDS011;52707;52.086;5.418;2024-02-15T02:43:04;28.95;;;14.80;;
65936;SDS011;52707;52.086;5.418;2024-02-15T02:45:30;26.52;;;14.07;;
65936;SDS011;52707;52.086;5.418;2024-02-15T02:47:57;30.90;;;14.20;;
65936;SDS011;52707;52.086;5.418;2024-02-15T02:50:23;27.15;;;13.13;;
65936;SDS011;52707;52.086;5.418;2024-02-15T02:52:50;30.38;;;13.95;;
65936;SDS011;52707;52.086;5.418;2024-02-15T02:55:17;30.50;;;14.63;;
65936;SDS011;52707;52.086;5.418;2024-02-15T02:57:43;38.05;;;14.10;;
65936;SDS011;52707;52.086;5.418;2024-02-15T03:00:10;32.17;;;14.02;;
65936;SDS011;52707;52.086;5.418;2024-02-15T03:02:43;30.52;;;13.48;;
65936;SDS011;52707;52.086;5.418;2024-02-15T03:05:09;33.03;;;14.35;;
65936;SDS011;52707;52.086;5.418;2024-02-15T03:07:38;29.35;;;13.85;;
65936;SDS011;52707;52.086;5.418;2024-02-15T03:10:06;29.65;;;13.07;;
65936;SDS011;52707;52.086;5.418;2024-02-15T03:12:35;37.17;;;13.73;;
65936;SDS011;52707;52.086;5.418;2024-02-15T03:15:07;28.40;;;13.00;;
65936;SDS011;52707;52.086;5.418;2024-02-15T03:17:38;23.42;;;13.45;;
65936;SDS011;52707;52.086;5.418;2024-02-15T03:20:06;25.35;;;12.02;;
65936;SDS011;52707;52.086;5.418;2024-02-15T03:22:37;28.80;;;12.57;;
65936;SDS011;52707;52.086;5.418;2024-02-15T03:25:04;27.15;;;12.07;;
65936;SDS011;52707;52.086;5.418;2024-02-15T03:27:34;30.05;;;12.88;;
65936;SDS011;52707;52.086;5.418;2024-02-15T03:30:01;33.28;;;12.52;;
65936;SDS011;52707;52.086;5.418;2024-02-15T03:32:28;32.92;;;11.93;;
65936;SDS011;52707;52.086;5.418;2024-02-15T03:34:54;25.52;;;11.13;;
65936;SDS011;52707;52.086;5.418;2024-02-15T03:37:20;33.05;;;10.82;;
65936;SDS011;52707;52.086;5.418;2024-02-15T03:39:47;33.70;;;11.13;;
65936;SDS011;52707;52.086;5.418;2024-02-15T03:42:13;24.98;;;10.25;;
65936;SDS011;52707;52.086;5.418;2024-02-15T03:44:40;24.88;;;10.27;;
65936;SDS011;52707;52.086;5.418;2024-02-15T03:47:07;26.05;;;10.38;;
65936;SDS011;52707;52.086;5.418;2024-02-15T03:49:33;24.00;;;10.43;;
65936;SDS011;52707;52.086;5.418;2024-02-15T03:52:00;33.40;;;10.88;;
65936;SDS011;52707;52.086;5.418;2024-02-15T03:54:26;30.02;;;10.75;;
65936;SDS011;52707;52.086;5.418;2024-02-15T03:56:52;25.90;;;9.98;;
65936;SDS011;52707;52.086;5.418;2024-02-15T03:59:19;27.35;;;10.13;;
65936;SDS011;52707;52.086;5.418;2024-02-15T04:01:53;28.42;;;9.95;;
65936;SDS011;52707;52.086;5.418;2024-02-15T04:04:20;25.63;;;9.80;;
65936;SDS011;52707;52.086;5.418;2024-02-15T04:06:50;29.23;;;9.17;;
65936;SDS011;52707;52.086;5.418;2024-02-15T04:09:16;26.17;;;8.85;;
65936;SDS011;52707;52.086;5.418;2024-02-15T04:11:49;28.88;;;9.02;;
65936;SDS011;52707;52.086;5.418;2024-02-15T04:14:19;32.58;;;8.70;;
65936;SDS011;52707;52.086;5.418;2024-02-15T04:16:46;24.60;;;9.27;;
65936;SDS011;52707;52.086;5.418;2024-02-15T04:19:12;20.90;;;8.82;;
65936;SDS011;52707;52.086;5.418;2024-02-15T04:21:39;26.73;;;9.23;;
65936;SDS011;52707;52.086;5.418;2024-02-15T04:24:06;23.65;;;7.82;;
65936;SDS011;52707;52.086;5.418;2024-02-15T04:26:32;26.15;;;8.23;;
65936;SDS011;52707;52.086;5.418;2024-02-15T04:28:59;26.98;;;7.95;;
65936;SDS011;52707;52.086;5.418;2024-02-15T04:31:26;28.85;;;8.25;;
65936;SDS011;52707;52.086;5.418;2024-02-15T04:33:53;21.10;;;8.07;;
65936;SDS011;52707;52.086;5.418;2024-02-15T04:36:20;23.48;;;8.05;;
65936;SDS011;52707;52.086;5.418;2024-02-15T04:38:50;27.90;;;8.17;;
65936;SDS011;52707;52.086;5.418;2024-02-15T04:41:17;26.50;;;8.25;;
65936;SDS011;52707;52.086;5.418;2024-02-15T04:43:46;36.55;;;8.65;;
65936;SDS011;52707;52.086;5.418;2024-02-15T04:46:12;24.23;;;7.85;;
65936;SDS011;52707;52.086;5.418;2024-02-15T04:48:40;27.05;;;7.80;;
65936;SDS011;52707;52.086;5.418;2024-02-15T04:51:09;23.48;;;8.18;;
65936;SDS011;52707;52.086;5.418;2024-02-15T04:53:37;24.58;;;8.38;;
65936;SDS011;52707;52.086;5.418;2024-02-15T04:56:05;21.30;;;7.95;;
65936;SDS011;52707;52.086;5.418;2024-02-15T04:58:37;28.95;;;8.82;;
65936;SDS011;52707;52.086;5.418;2024-02-15T05:01:04;21.17;;;7.10;;
65936;SDS011;52707;52.086;5.418;2024-02-15T05:03:32;23.73;;;7.70;;
65936;SDS011;52707;52.086;5.418;2024-02-15T05:06:01;15.60;;;7.50;;
65936;SDS011;52707;52.086;5.418;2024-02-15T05:08:27;34.55;;;8.68;;
65936;SDS011;52707;52.086;5.418;2024-02-15T05:10:58;27.95;;;8.30;;
65936;SDS011;52707;52.086;5.418;2024-02-15T05:13:24;24.80;;;8.07;;
65936;SDS011;52707;52.086;5.418;2024-02-15T05:15:51;27.83;;;8.77;;
65936;SDS011;52707;52.086;5.418;2024-02-15T05:18:17;23.42;;;8.52;;
65936;SDS011;52707;52.086;5.418;2024-02-15T05:20:44;23.50;;;8.52;;
65936;SDS011;52707;52.086;5.418;2024-02-15T05:23:11;25.73;;;8.65;;
65936;SDS011;52707;52.086;5.418;2024-02-15T05:25:38;24.48;;;8.65;;
65936;SDS011;52707;52.086;5.418;2024-02-15T05:28:04;18.33;;;8.10;;
65936;SDS011;52707;52.086;5.418;2024-02-15T05:30:35;28.02;;;8.63;;
65936;SDS011;52707;52.086;5.418;2024-02-15T05:33:01;21.02;;;8.65;;
65936;SDS011;52707;52.086;5.418;2024-02-15T05:35:28;20.98;;;8.65;;
65936;SDS011;52707;52.086;5.418;2024-02-15T05:37:54;23.50;;;9.32;;
65936;SDS011;52707;52.086;5.418;2024-02-15T05:40:22;24.08;;;8.90;;
65936;SDS011;52707;52.086;5.418;2024-02-15T05:42:48;22.75;;;8.80;;
65936;SDS011;52707;52.086;5.418;2024-02-15T05:47:51;19.08;;;8.23;;
65936;SDS011;52707;52.086;5.418;2024-02-15T05:50:18;23.38;;;9.10;;
65936;SDS011;52707;52.086;5.418;2024-02-15T05:52:47;20.80;;;8.48;;
65936;SDS011;52707;52.086;5.418;2024-02-15T05:55:14;28.98;;;9.40;;
65936;SDS011;52707;52.086;5.418;2024-02-15T05:57:43;16.55;;;8.55;;
65936;SDS011;52707;52.086;5.418;2024-02-15T06:00:10;15.98;;;8.75;;
65936;SDS011;52707;52.086;5.418;2024-02-15T06:02:47;19.42;;;9.10;;
65936;SDS011;52707;52.086;5.418;2024-02-15T06:05:13;20.67;;;9.32;;
65936;SDS011;52707;52.086;5.418;2024-02-15T06:07:43;21.52;;;9.40;;
65936;SDS011;52707;52.086;5.418;2024-02-15T06:10:10;22.00;;;9.15;;
65936;SDS011;52707;52.086;5.418;2024-02-15T06:12:36;24.77;;;9.10;;
65936;SDS011;52707;52.086;5.418;2024-02-15T06:15:05;19.30;;;9.00;;
65936;SDS011;52707;52.086;5.418;2024-02-15T06:17:40;16.10;;;8.55;;
65936;SDS011;52707;52.086;5.418;2024-02-15T06:20:07;20.67;;;8.75;;
65936;SDS011;52707;52.086;5.418;2024-02-15T06:22:34;15.18;;;8.38;;
65936;SDS011;52707;52.086;5.418;2024-02-15T06:25:01;30.67;;;9.95;;
65936;SDS011;52707;52.086;5.418;2024-02-15T06:27:28;24.63;;;9.68;;
65936;SDS011;52707;52.086;5.418;2024-02-15T06:29:54;17.48;;;9.80;;
65936;SDS011;52707;52.086;5.418;2024-02-15T06:32:39;20.45;;;9.68;;
65936;SDS011;52707;52.086;5.418;2024-02-15T06:35:24;24.92;;;9.90;;
65936;SDS011;52707;52.086;5.418;2024-02-15T06:38:09;18.38;;;9.82;;
65936;SDS011;52707;52.086;5.418;2024-02-15T06:40:54;20.13;;;9.00;;
65936;SDS011;52707;52.086;5.418;2024-02-15T06:43:20;28.52;;;10.65;;
65936;SDS011;52707;52.086;5.418;2024-02-15T06:45:47;20.98;;;10.40;;
65936;SDS011;52707;52.086;5.418;2024-02-15T06:48:13;24.23;;;10.02;;
65936;SDS011;52707;52.086;5.418;2024-02-15T06:50:40;15.65;;;9.40;;
65936;SDS011;52707;52.086;5.418;2024-02-15T06:53:07;17.55;;;9.60;;
65936;SDS011;52707;52.086;5.418;2024-02-15T06:55:34;18.83;;;10.02;;
65936;SDS011;52707;52.086;5.418;2024-02-15T06:58:02;17.92;;;9.43;;
65936;SDS011;52707;52.086;5.418;2024-02-15T07:00:29;14.60;;;9.65;;
65936;SDS011;52707;52.086;5.418;2024-02-15T07:02:57;22.52;;;11.25;;
65936;SDS011;52707;52.086;5.418;2024-02-15T07:05:23;15.70;;;9.68;;
65936;SDS011;52707;52.086;5.418;2024-02-15T07:07:49;21.52;;;10.30;;
65936;SDS011;52707;52.086;5.418;2024-02-15T07:10:16;23.23;;;10.27;;
65936;SDS011;52707;52.086;5.418;2024-02-15T07:12:45;15.57;;;9.45;;
65936;SDS011;52707;52.086;5.418;2024-02-15T07:15:11;18.15;;;9.40;;
65936;SDS011;52707;52.086;5.418;2024-02-15T07:17:38;20.23;;;10.13;;
65936;SDS011;52707;52.086;5.418;2024-02-15T07:20:06;16.52;;;9.32;;
65936;SDS011;52707;52.086;5.418;2024-02-15T07:22:33;26.75;;;10.07;;
65936;SDS011;52707;52.086;5.418;2024-02-15T07:24:59;15.93;;;8.60;;
65936;SDS011;52707;52.086;5.418;2024-02-15T07:27:26;19.02;;;9.98;;
65936;SDS011;52707;52.086;5.418;2024-02-15T07:29:53;18.25;;;10.25;;
65936;SDS011;52707;52.086;5.418;2024-02-15T07:32:20;19.13;;;10.13;;
65936;SDS011;52707;52.086;5.418;2024-02-15T07:34:47;21.48;;;9.90;;
65936;SDS011;52707;52.086;5.418;2024-02-15T07:37:14;16.20;;;8.68;;
65936;SDS011;52707;52.086;5.418;2024-02-15T07:39:42;13.55;;;8.52;;
65936;SDS011;52707;52.086;5.418;2024-02-15T07:42:08;13.90;;;8.15;;
65936;SDS011;52707;52.086;5.418;2024-02-15T07:44:35;13.52;;;8.82;;
65936;SDS011;52707;52.086;5.418;2024-02-15T07:47:03;14.90;;;7.93;;
65936;SDS011;52707;52.086;5.418;2024-02-15T07:49:31;17.00;;;7.68;;
65936;SDS011;52707;52.086;5.418;2024-02-15T07:51:57;16.45;;;8.45;;
65936;SDS011;52707;52.086;5.418;2024-02-15T07:54:25;12.57;;;7.03;;
65936;SDS011;52707;52.086;5.418;2024-02-15T07:56:51;12.07;;;7.72;;
65936;SDS011;52707;52.086;5.418;2024-02-15T07:59:19;21.50;;;6.82;;
65936;SDS011;52707;52.086;5.418;2024-02-15T08:01:45;9.70;;;7.22;;
65936;SDS011;52707;52.086;5.418;2024-02-15T08:04:16;10.50;;;6.78;;
65936;SDS011;52707;52.086;5.418;2024-02-15T08:06:44;14.38;;;7.30;;
65936;SDS011;52707;52.086;5.418;2024-02-15T08:09:10;13.55;;;6.45;;
65936;SDS011;52707;52.086;5.418;2024-02-15T08:11:40;21.42;;;6.57;;
65936;SDS011;52707;52.086;5.418;2024-02-15T08:14:07;10.07;;;6.28;;
65936;SDS011;52707;52.086;5.418;2024-02-15T08:16:39;9.23;;;6.85;;
65936;SDS011;52707;52.086;5.418;2024-02-15T08:19:06;12.32;;;7.55;;
65936;SDS011;52707;52.086;5.418;2024-02-15T08:21:33;10.18;;;7.10;;
65936;SDS011;52707;52.086;5.418;2024-02-15T08:24:02;10.18;;;6.63;;
65936;SDS011;52707;52.086;5.418;2024-02-15T08:26:32;10.75;;;6.55;;
65936;SDS011;52707;52.086;5.418;2024-02-15T08:28:59;18.38;;;6.38;;
65936;SDS011;52707;52.086;5.418;2024-02-15T08:31:27;9.57;;;6.30;;
65936;SDS011;52707;52.086;5.418;2024-02-15T08:33:53;14.15;;;6.50;;
65936;SDS011;52707;52.086;5.418;2024-02-15T08:36:19;9.20;;;6.15;;
65936;SDS011;52707;52.086;5.418;2024-02-15T08:38:49;8.18;;;5.50;;
65936;SDS011;52707;52.086;5.418;2024-02-15T08:41:16;9.70;;;4.60;;
65936;SDS011;52707;52.086;5.418;2024-02-15T08:43:45;8.13;;;4.20;;
65936;SDS011;52707;52.086;5.418;2024-02-15T08:46:12;8.23;;;4.15;;
65936;SDS011;52707;52.086;5.418;2024-02-15T08:48:38;11.48;;;4.40;;
65936;SDS011;52707;52.086;5.418;2024-02-15T08:51:05;7.35;;;3.92;;
65936;SDS011;52707;52.086;5.418;2024-02-15T08:53:35;6.07;;;3.42;;
65936;SDS011;52707;52.086;5.418;2024-02-15T08:56:05;8.88;;;4.45;;
65936;SDS011;52707;52.086;5.418;2024-02-15T08:58:32;7.75;;;3.90;;
65936;SDS011;52707;52.086;5.418;2024-02-15T09:00:58;10.05;;;4.10;;
65936;SDS011;52707;52.086;5.418;2024-02-15T09:03:25;5.93;;;3.75;;
65936;SDS011;52707;52.086;5.418;2024-02-15T09:05:51;5.68;;;3.65;;
65936;SDS011;52707;52.086;5.418;2024-02-15T09:08:18;4.63;;;3.47;;
65936;SDS011;52707;52.086;5.418;2024-02-15T09:10:47;6.28;;;3.15;;
65936;SDS011;52707;52.086;5.418;2024-02-15T09:13:15;5.65;;;3.15;;
65936;SDS011;52707;52.086;5.418;2024-02-15T09:15:41;5.90;;;3.03;;
65936;SDS011;52707;52.086;5.418;2024-02-15T09:18:08;4.95;;;2.83;;
65936;SDS011;52707;52.086;5.418;2024-02-15T09:20:38;4.30;;;3.03;;
65936;SDS011;52707;52.086;5.418;2024-02-15T09:23:10;7.65;;;3.22;;
65936;SDS011;52707;52.086;5.418;2024-02-15T09:25:38;5.13;;;3.08;;
65936;SDS011;52707;52.086;5.418;2024-02-15T09:28:04;6.43;;;2.90;;
65936;SDS011;52707;52.086;5.418;2024-02-15T09:30:31;5.93;;;3.50;;
65936;SDS011;52707;52.086;5.418;2024-02-15T09:32:58;6.10;;;3.50;;
65936;SDS011;52707;52.086;5.418;2024-02-15T09:35:24;7.18;;;3.70;;
65936;SDS011;52707;52.086;5.418;2024-02-15T09:37:51;7.85;;;3.10;;
65936;SDS011;52707;52.086;5.418;2024-02-15T09:40:19;10.95;;;3.17;;
65936;SDS011;52707;52.086;5.418;2024-02-15T09:42:46;9.32;;;3.35;;
65936;SDS011;52707;52.086;5.418;2024-02-15T09:45:13;15.75;;;3.28;;
65936;SDS011;52707;52.086;5.418;2024-02-15T09:47:41;10.85;;;3.45;;
65936;SDS011;52707;52.086;5.418;2024-02-15T09:50:09;11.75;;;4.20;;
65936;SDS011;52707;52.086;5.418;2024-02-15T09:52:43;15.63;;;4.20;;
65936;SDS011;52707;52.086;5.418;2024-02-15T09:55:10;11.27;;;3.63;;
65936;SDS011;52707;52.086;5.418;2024-02-15T09:57:43;9.00;;;3.55;;
65936;SDS011;52707;52.086;5.418;2024-02-15T10:00:10;7.70;;;3.42;;
65936;SDS011;52707;52.086;5.418;2024-02-15T10:02:41;6.38;;;3.42;;
65936;SDS011;52707;52.086;5.418;2024-02-15T10:05:08;8.40;;;3.75;;
65936;SDS011;52707;52.086;5.418;2024-02-15T10:07:41;8.73;;;3.87;;
65936;SDS011;52707;52.086;5.418;2024-02-15T10:10:14;15.87;;;4.00;;
65936;SDS011;52707;52.086;5.418;2024-02-15T10:12:42;7.35;;;3.13;;
65936;SDS011;52707;52.086;5.418;2024-02-15T10:18:01;9.40;;;3.60;;
65936;SDS011;52707;52.086;5.418;2024-02-15T10:20:28;11.90;;;3.83;;
65936;SDS011;52707;52.086;5.418;2024-02-15T10:25:27;13.40;;;3.83;;
65936;SDS011;52707;52.086;5.418;2024-02-15T10:28:01;9.73;;;3.58;;
65936;SDS011;52707;52.086;5.418;2024-02-15T10:30:27;13.52;;;3.80;;
65936;SDS011;52707;52.086;5.418;2024-02-15T10:32:55;12.27;;;2.92;;
65936;SDS011;52707;52.086;5.418;2024-02-15T10:35:23;11.07;;;3.70;;
65936;SDS011;52707;52.086;5.418;2024-02-15T10:37:50;11.80;;;3.30;;
65936;SDS011;52707;52.086;5.418;2024-02-15T10:40:17;9.82;;;3.58;;
65936;SDS011;52707;52.086;5.418;2024-02-15T10:42:47;12.75;;;4.10;;
65936;SDS011;52707;52.086;5.418;2024-02-15T10:45:15;12.18;;;3.42;;
65936;SDS011;52707;52.086;5.418;2024-02-15T10:47:44;12.60;;;3.92;;
65936;SDS011;52707;52.086;5.418;2024-02-15T10:50:12;11.38;;;3.50;;
65936;SDS011;52707;52.086;5.418;2024-02-15T10:52:42;11.77;;;4.15;;
65936;SDS011;52707;52.086;5.418;2024-02-15T10:55:11;11.90;;;4.10;;
65936;SDS011;52707;52.086;5.418;2024-02-15T10:57:40;14.00;;;3.78;;
65936;SDS011;52707;52.086;5.418;2024-02-15T11:00:09;12.75;;;3.95;;
65936;SDS011;52707;52.086;5.418;2024-02-15T11:02:42;11.25;;;3.63;;
65936;SDS011;52707;52.086;5.418;2024-02-15T11:05:11;8.60;;;3.50;;
65936;SDS011;52707;52.086;5.418;2024-02-15T11:07:40;10.20;;;3.22;;
65936;SDS011;52707;52.086;5.418;2024-02-15T11:10:07;12.35;;;4.15;;
65936;SDS011;52707;52.086;5.418;2024-02-15T11:12:37;9.60;;;5.32;;
65936;SDS011;52707;52.086;5.418;2024-02-15T11:15:05;11.38;;;4.47;;
65936;SDS011;52707;52.086;5.418;2024-02-15T11:20:06;11.85;;;4.90;;
65936;SDS011;52707;52.086;5.418;2024-02-15T11:22:37;11.18;;;4.63;;
65936;SDS011;52707;52.086;5.418;2024-02-15T11:25:04;13.95;;;5.22;;
65936;SDS011;52707;52.086;5.418;2024-02-15T11:27:41;11.45;;;4.07;;
65936;SDS011;52707;52.086;5.418;2024-02-15T11:30:07;13.57;;;4.53;;
65936;SDS011;52707;52.086;5.418;2024-02-15T11:35:24;18.25;;;5.40;;
65936;SDS011;52707;52.086;5.418;2024-02-15T11:37:53;6.88;;;4.32;;
65936;SDS011;52707;52.086;5.418;2024-02-15T11:42:54;10.98;;;4.80;;
65936;SDS011;52707;52.086;5.418;2024-02-15T11:47:48;10.13;;;5.10;;
65936;SDS011;52707;52.086;5.418;2024-02-15T11:50:17;11.95;;;5.20;;
65936;SDS011;52707;52.086;5.418;2024-02-15T11:52:44;11.13;;;5.00;;
65936;SDS011;52707;52.086;5.418;2024-02-15T11:55:12;7.43;;;4.30;;
65936;SDS011;52707;52.086;5.418;2024-02-15T11:57:40;15.55;;;5.18;;
65936;SDS011;52707;52.086;5.418;2024-02-15T12:00:20;11.20;;;4.75;;
65936;SDS011;52707;52.086;5.418;2024-02-15T12:03:05;13.23;;;4.95;;
65936;SDS011;52707;52.086;5.418;2024-02-15T12:05:51;7.53;;;4.22;;
65936;SDS011;52707;52.086;5.418;2024-02-15T12:08:36;18.50;;;5.45;;
65936;SDS011;52707;52.086;5.418;2024-02-15T12:11:21;15.95;;;5.22;;
65936;SDS011;52707;52.086;5.418;2024-02-15T12:14:06;13.13;;;5.05;;
65936;SDS011;52707;52.086;5.418;2024-02-15T12:17:04;12.07;;;5.10;;
65936;SDS011;52707;52.086;5.418;2024-02-15T12:19:49;10.80;;;4.60;;
65936;SDS011;52707;52.086;5.418;2024-02-15T12:22:24;11.93;;;4.82;;
65936;SDS011;52707;52.086;5.418;2024-02-15T12:24:55;12.45;;;4.57;;
65936;SDS011;52707;52.086;5.418;2024-02-15T12:27:22;13.90;;;4.77;;
65936;SDS011;52707;52.086;5.418;2024-02-15T12:29:55;10.52;;;4.05;;
65936;SDS011;52707;52.086;5.418;2024-02-15T12:32:22;9.45;;;4.70;;
65936;SDS011;52707;52.086;5.418;2024-02-15T12:34:49;11.25;;;3.97;;
65936;SDS011;52707;52.086;5.418;2024-02-15T12:37:18;11.30;;;3.97;;
65936;SDS011;52707;52.086;5.418;2024-02-15T12:39:45;12.63;;;3.78;;
65936;SDS011;52707;52.086;5.418;2024-02-15T12:42:11;8.27;;;3.63;;
65936;SDS011;52707;52.086;5.418;2024-02-15T12:44:41;11.10;;;4.07;;
65936;SDS011;52707;52.086;5.418;2024-02-15T12:47:09;6.28;;;2.95;;
65936;SDS011;52707;52.086;5.418;2024-02-15T12:49:35;11.15;;;4.10;;
65936;SDS011;52707;52.086;5.418;2024-02-15T12:54:47;7.45;;;2.70;;
65936;SDS011;52707;52.086;5.418;2024-02-15T12:57:14;8.98;;;2.92;;
65936;SDS011;52707;52.086;5.418;2024-02-15T12:59:43;9.77;;;2.87;;
65936;SDS011;52707;52.086;5.418;2024-02-15T13:02:10;6.30;;;3.33;;
65936;SDS011;52707;52.086;5.418;2024-02-15T13:04:36;10.50;;;3.88;;
65936;SDS011;52707;52.086;5.418;2024-02-15T13:07:04;7.05;;;2.85;;
65936;SDS011;52707;52.086;5.418;2024-02-15T13:09:33;8.45;;;3.40;;
65936;SDS011;52707;52.086;5.418;2024-02-15T13:12:00;8.57;;;3.30;;
65936;SDS011;52707;52.086;5.418;2024-02-15T13:14:26;13.68;;;4.22;;
65936;SDS011;52707;52.086;5.418;2024-02-15T13:16:55;5.95;;;2.85;;
65936;SDS011;52707;52.086;5.418;2024-02-15T13:19:22;6.07;;;2.53;;
65936;SDS011;52707;52.086;5.418;2024-02-15T13:21:49;10.32;;;2.90;;
65936;SDS011;52707;52.086;5.418;2024-02-15T13:24:19;7.82;;;2.58;;
65936;SDS011;52707;52.086;5.418;2024-02-15T13:26:47;5.10;;;2.00;;
65936;SDS011;52707;52.086;5.418;2024-02-15T13:29:13;10.02;;;2.60;;
65936;SDS011;52707;52.086;5.418;2024-02-15T13:31:41;10.00;;;2.47;;
65936;SDS011;52707;52.086;5.418;2024-02-15T13:34:08;7.43;;;2.47;;
65936;SDS011;52707;52.086;5.418;2024-02-15T13:36:36;6.93;;;2.17;;
65936;SDS011;52707;52.086;5.418;2024-02-15T13:39:02;8.30;;;2.75;;
65936;SDS011;52707;52.086;5.418;2024-02-15T13:41:31;6.80;;;2.63;;
65936;SDS011;52707;52.086;5.418;2024-02-15T13:43:57;5.75;;;2.20;;
65936;SDS011;52707;52.086;5.418;2024-02-15T13:46:23;4.70;;;1.92;;
65936;SDS011;52707;52.086;5.418;2024-02-15T13:48:50;7.13;;;2.15;;
65936;SDS011;52707;52.086;5.418;2024-02-15T13:51:17;8.38;;;2.10;;
65936;SDS011;52707;52.086;5.418;2024-02-15T13:53:44;6.25;;;2.05;;
65936;SDS011;52707;52.086;5.418;2024-02-15T13:56:11;5.22;;;1.85;;
65936;SDS011;52707;52.086;5.418;2024-02-15T13:58:37;5.53;;;2.42;;
65936;SDS011;52707;52.086;5.418;2024-02-15T14:01:03;7.50;;;2.40;;
65936;SDS011;52707;52.086;5.418;2024-02-15T14:03:30;6.25;;;2.85;;
65936;SDS011;52707;52.086;5.418;2024-02-15T14:05:57;10.15;;;2.47;;
65936;SDS011;52707;52.086;5.418;2024-02-15T14:08:24;5.03;;;2.55;;
65936;SDS011;52707;52.086;5.418;2024-02-15T14:10:52;5.47;;;2.80;;
65936;SDS011;52707;52.086;5.418;2024-02-15T14:13:18;8.50;;;3.22;;
65936;SDS011;52707;52.086;5.418;2024-02-15T14:15:48;6.88;;;2.65;;
65936;SDS011;52707;52.086;5.418;2024-02-15T14:18:14;13.23;;;3.63;;
65936;SDS011;52707;52.086;5.418;2024-02-15T14:20:42;7.72;;;2.92;;
65936;SDS011;52707;52.086;5.418;2024-02-15T14:23:09;9.52;;;2.75;;
65936;SDS011;52707;52.086;5.418;2024-02-15T14:25:40;8.07;;;2.55;;
65936;SDS011;52707;52.086;5.418;2024-02-15T14:28:07;9.55;;;2.40;;
65936;SDS011;52707;52.086;5.418;2024-02-15T14:30:34;6.25;;;2.28;;
65936;SDS011;52707;52.086;5.418;2024-02-15T14:33:19;8.82;;;2.85;;
65936;SDS011;52707;52.086;5.418;2024-02-15T14:35:49;7.10;;;2.87;;
65936;SDS011;52707;52.086;5.418;2024-02-15T14:38:16;6.35;;;2.45;;
65936;SDS011;52707;52.086;5.418;2024-02-15T14:40:45;7.35;;;2.03;;
65936;SDS011;52707;52.086;5.418;2024-02-15T14:43:17;6.80;;;2.85;;
65936;SDS011;52707;52.086;5.418;2024-02-15T14:45:45;11.95;;;3.17;;
65936;SDS011;52707;52.086;5.418;2024-02-15T14:48:12;10.55;;;3.70;;
65936;SDS011;52707;52.086;5.418;2024-02-15T14:50:40;9.77;;;3.90;;
65936;SDS011;52707;52.086;5.418;2024-02-15T14:53:07;9.77;;;3.80;;
65936;SDS011;52707;52.086;5.418;2024-02-15T14:55:34;10.90;;;3.05;;
65936;SDS011;52707;52.086;5.418;2024-02-15T14:58:00;7.13;;;2.70;;
65936;SDS011;52707;52.086;5.418;2024-02-15T15:00:30;6.93;;;2.42;;
65936;SDS011;52707;52.086;5.418;2024-02-15T15:03:03;14.15;;;3.55;;